Terminal Aerodrome Forecast
Issued by NWS Jackson, KY

Home | Current Version | Previous Version | Text Only | Print | Product List | Glossary On
Versions: 1 2 3 4 5 6 7 8 9 10 11 12 13
000
FTUS43 KJKL 231722
TAFJKL
TAF
KJKL 231722Z 2318/2418 22005KT P6SM VCTS BKN025 BKN035CB
     FM232200 21010G22KT 5SM -TSRA OVC025CB
     FM240200 23007KT 2SM -SHRA VCTS OVC025CB
     FM240600 28005KT 4SM BR BKN010 OVC025
     FM241100 VRB03KT P6SM BKN008
     FM241300 VRB03KT P6SM SCT010=

USA.gov is the U.S. government's official web portal to all federal, state and local government web resources and services.